createdAt,value
2019-03-10T11:42:21.742Z,12.01
2019-03-10T11:43:22.779Z,12.07
2019-03-10T11:44:21.665Z,12.52
2019-03-10T11:45:21.642Z,12.26
2019-03-10T11:46:21.634Z,12.61
2019-03-10T11:47:21.627Z,12.71
2019-03-10T11:48:21.640Z,12.91
2019-03-10T11:49:21.598Z,13.14
2019-03-10T11:50:21.584Z,12.95
2019-03-10T11:51:21.607Z,12.89
2019-03-10T11:52:21.587Z,12.91
2019-03-10T11:53:21.563Z,13.21
2019-03-10T11:54:21.579Z,13.28
2019-03-10T11:55:21.612Z,13.04
2019-03-10T11:56:21.518Z,12.96
2019-03-10T11:57:21.507Z,12.66
2019-03-10T11:58:21.502Z,12.54
2019-03-10T11:59:21.506Z,12.76
2019-03-10T12:00:21.523Z,13.12
2019-03-10T12:01:21.473Z,12.55
2019-03-10T12:02:21.456Z,12.37
2019-03-10T12:03:21.444Z,12.89
2019-03-10T12:04:21.446Z,13.04
2019-03-10T12:05:21.455Z,13.31
2019-03-10T12:06:21.411Z,13.59
2019-03-10T12:07:23.517Z,13.96
2019-03-10T12:08:21.387Z,14.48
2019-03-10T12:09:21.415Z,14.91
2019-03-10T12:10:21.694Z,14.78
2019-03-10T12:11:21.354Z,14.44
2019-03-10T12:12:21.434Z,14.42
2019-03-10T12:13:21.345Z,13.86
2019-03-10T12:14:21.322Z,13.16
2019-03-10T12:15:21.352Z,12.70
2019-03-10T12:16:21.306Z,12.74
2019-03-10T12:17:21.290Z,12.61
2019-03-10T12:18:21.276Z,12.40
2019-03-10T12:19:21.270Z,11.90
2019-03-10T12:20:21.257Z,12.04
2019-03-10T12:21:21.306Z,12.25
2019-03-10T12:22:21.241Z,12.46
2019-03-10T12:23:21.223Z,12.25
2019-03-10T12:24:21.213Z,12.16
2019-03-10T12:25:21.197Z,12.25
2019-03-10T12:26:21.186Z,12.67
2019-03-10T12:27:21.229Z,12.89
2019-03-10T12:28:21.169Z,12.59
2019-03-10T12:29:21.200Z,12.58
2019-03-10T12:30:21.175Z,12.61
2019-03-10T12:31:21.180Z,12.22
2019-03-10T12:32:21.261Z,11.90
2019-03-10T12:33:21.170Z,11.94
2019-03-10T12:34:21.106Z,11.77
2019-03-10T12:35:21.101Z,11.72
2019-03-10T12:36:21.087Z,11.75
2019-03-10T12:37:21.068Z,12.38
2019-03-10T12:38:21.069Z,12.19
2019-03-10T12:39:21.079Z,12.11
2019-03-10T12:40:21.041Z,12.36
2019-03-10T12:41:21.027Z,12.23
2019-03-10T12:42:21.030Z,12.03
2019-03-10T12:43:21.021Z,11.77
2019-03-10T12:44:21.029Z,12.11
2019-03-10T12:45:20.977Z,13.06
2019-03-10T12:46:20.967Z,13.50
2019-03-10T12:47:20.983Z,13.87
2019-03-10T12:48:20.949Z,13.61
2019-03-10T12:49:20.946Z,13.44
2019-03-10T12:50:20.967Z,13.06
2019-03-10T12:51:20.913Z,12.96
2019-03-10T12:52:20.900Z,12.94
2019-03-10T12:53:27.938Z,13.16
2019-03-10T12:54:20.884Z,13.53
2019-03-10T12:55:20.889Z,13.44
2019-03-10T12:56:20.891Z,13.31
2019-03-10T12:57:20.855Z,12.85
2019-03-10T12:58:20.840Z,12.77
2019-03-10T12:59:20.843Z,12.88
2019-03-10T13:00:50.461Z,12.46
2019-03-10T13:01:20.870Z,12.52
2019-03-10T13:02:20.896Z,12.52
2019-03-10T13:03:20.804Z,12.38
2019-03-10T13:04:20.792Z,12.30
2019-03-10T13:05:28.409Z,12.46
2019-03-10T13:06:20.768Z,12.58
2019-03-10T13:07:20.802Z,12.46
2019-03-10T13:08:21.023Z,12.41
2019-03-10T13:09:20.727Z,12.25
2019-03-10T13:10:20.830Z,12.04
2019-03-10T13:11:27.867Z,12.05
2019-03-10T13:12:21.572Z,11.98
2019-03-10T13:13:20.741Z,11.85
2019-03-10T13:14:20.865Z,11.74
2019-03-10T13:15:20.658Z,11.79
2019-03-10T13:16:21.466Z,11.56
2019-03-10T13:17:27.778Z,11.56
2019-03-10T13:18:20.661Z,11.59
2019-03-10T13:19:27.814Z,11.57
2019-03-10T13:21:29.742Z,11.59
2019-03-10T13:22:29.645Z,11.59
2019-03-10T13:23:29.620Z,11.64
2019-03-10T13:25:38.391Z,11.49
2019-03-10T13:26:41.463Z,11.30
2019-03-10T13:27:38.349Z,11.19
2019-03-10T13:28:49.865Z,11.26
2019-03-10T13:29:45.454Z,11.41
2019-03-10T13:30:38.289Z,11.33
2019-03-10T13:31:38.308Z,11.42
2019-03-10T13:32:38.346Z,11.48
2019-03-10T13:33:38.256Z,11.72
2019-03-10T13:35:47.154Z,11.60
2019-03-10T13:36:46.987Z,11.51
2019-03-10T13:37:46.948Z,11.64
2019-03-10T13:39:02.806Z,12.05
2019-03-10T13:39:46.925Z,12.40
2019-03-10T13:40:46.931Z,12.22
2019-03-10T13:41:46.969Z,12.16
2019-03-10T13:42:46.884Z,12.58
2019-03-10T13:43:47.066Z,12.88
2019-03-10T13:44:46.882Z,12.70
2019-03-10T13:45:46.875Z,12.89
2019-03-10T13:46:46.865Z,12.96
2019-03-10T13:47:46.876Z,13.19
2019-03-10T13:49:10.044Z,13.04
2019-03-10T13:49:46.825Z,12.91
2019-03-10T13:50:46.822Z,13.39
2019-03-10T13:51:46.805Z,13.88
2019-03-10T13:52:46.805Z,14.12
2019-03-10T13:53:46.812Z,14.24
2019-03-10T13:54:46.806Z,14.49
2019-03-10T13:55:46.757Z,14.12
2019-03-10T13:56:46.736Z,13.96
2019-03-10T13:57:46.737Z,13.98
2019-03-10T13:58:46.725Z,14.06
2019-03-10T13:59:46.765Z,14.11
2019-03-10T14:00:46.689Z,14.17
2019-03-10T14:01:46.686Z,13.90
2019-03-10T14:02:46.692Z,13.94
2019-03-10T14:03:54.400Z,13.71
2019-03-10T14:04:47.186Z,13.76
2019-03-10T14:05:46.682Z,13.61
2019-03-10T14:06:46.624Z,13.31
2019-03-10T14:07:46.619Z,13.48
2019-03-10T14:08:46.598Z,13.41
2019-03-10T14:09:46.602Z,13.41
2019-03-10T14:10:46.584Z,13.48
2019-03-10T14:11:46.611Z,13.43
2019-03-10T14:12:53.190Z,13.44
2019-03-10T14:13:46.588Z,13.44
2019-03-10T14:14:46.542Z,13.61
2019-03-10T14:15:46.526Z,13.93
2019-03-10T14:16:46.523Z,13.73
2019-03-10T14:17:47.719Z,13.96
2019-03-10T14:18:46.494Z,13.93
2019-03-10T14:19:46.513Z,13.99
2019-03-10T14:20:46.469Z,13.93
2019-03-10T14:21:46.513Z,13.79
2019-03-10T14:22:53.561Z,13.62
2019-03-10T14:23:46.509Z,13.71
2019-03-10T14:24:47.219Z,13.87
2019-03-10T14:25:46.421Z,14.02
2019-03-10T14:26:46.417Z,14.06
2019-03-10T14:27:47.567Z,13.76
2019-03-10T14:28:46.439Z,13.01
2019-03-10T14:29:46.375Z,13.06
2019-03-10T14:30:46.359Z,13.31
2019-03-10T14:31:46.349Z,13.50
2019-03-10T14:32:48.423Z,13.53
2019-03-10T14:33:46.336Z,13.68
2019-03-10T14:34:46.710Z,13.51
2019-03-10T14:35:46.305Z,13.59
2019-03-10T14:36:46.296Z,13.47
2019-03-10T14:37:54.219Z,13.24
2019-03-10T14:38:46.270Z,13.44
2019-03-10T14:39:46.255Z,13.73
2019-03-10T14:40:46.262Z,13.98
2019-03-10T14:41:46.234Z,13.68
2019-03-10T14:42:46.221Z,13.57
2019-03-10T14:43:46.250Z,13.66
2019-03-10T14:44:46.200Z,13.72
2019-03-10T14:45:46.694Z,14.09
2019-03-10T14:46:46.250Z,13.99
2019-03-10T14:47:46.167Z,13.91
2019-03-10T14:48:46.155Z,13.46
2019-03-10T14:49:46.180Z,12.96
2019-03-10T14:50:46.237Z,13.04
2019-03-10T14:51:52.838Z,13.36
2019-03-10T14:52:46.113Z,13.16
2019-03-10T14:53:46.096Z,13.21
2019-03-10T14:54:46.088Z,13.17
2019-03-10T14:55:46.120Z,12.81
2019-03-10T14:56:46.106Z,12.91
2019-03-10T14:57:46.052Z,12.51
2019-03-10T14:58:46.062Z,12.43
2019-03-10T14:59:46.038Z,12.56
2019-03-10T15:00:46.022Z,12.61
2019-03-10T15:01:46.054Z,12.70
2019-03-10T15:02:46.001Z,12.73
2019-03-10T15:03:46.025Z,12.84
2019-03-10T15:04:46.022Z,12.62
2019-03-10T15:05:45.976Z,12.56
2019-03-10T15:06:45.967Z,12.49
2019-03-10T15:07:45.946Z,12.26
2019-03-10T15:08:46.529Z,12.18
2019-03-10T15:09:45.924Z,12.11
2019-03-10T15:10:46.697Z,11.96
2019-03-10T15:12:54.692Z,11.85
2019-03-10T15:13:54.648Z,11.88
2019-03-10T15:14:54.627Z,11.94
2019-03-10T15:16:17.440Z,11.88
2019-03-10T15:17:01.616Z,11.75
2019-03-10T15:17:55.595Z,11.82
2019-03-10T15:18:54.564Z,11.70
2019-03-10T15:19:54.564Z,11.67
2019-03-10T15:20:54.672Z,11.51
2019-03-10T15:21:54.575Z,11.31
2019-03-10T15:22:54.532Z,11.20
2019-03-10T15:23:54.507Z,11.20
2019-03-10T15:24:56.662Z,11.16
2019-03-10T15:26:02.412Z,11.11
2019-03-10T15:26:54.511Z,11.16
2019-03-10T15:27:54.529Z,11.12
2019-03-10T15:28:55.387Z,11.13
2019-03-10T15:29:54.461Z,11.13
2019-03-10T15:31:17.498Z,11.06
2019-03-10T15:31:54.449Z,10.75
2019-03-10T15:32:54.471Z,10.60
2019-03-10T15:33:54.405Z,10.65
2019-03-10T15:34:54.385Z,10.54
2019-03-10T15:35:54.384Z,10.60
2019-03-10T15:36:54.387Z,10.62
2019-03-10T15:37:54.370Z,10.69
2019-03-10T15:38:54.389Z,10.66
2019-03-10T15:39:54.387Z,10.58
2019-03-10T15:40:54.336Z,10.44
2019-03-10T15:41:54.316Z,10.49
2019-03-10T15:42:54.355Z,10.39
2019-03-10T15:43:54.336Z,10.38
2019-03-10T15:44:54.282Z,10.24
2019-03-10T15:46:30.091Z,10.35
2019-03-10T15:46:54.253Z,10.22
2019-03-10T15:47:54.282Z,9.80
2019-03-10T15:48:54.270Z,9.56
2019-03-10T15:50:15.219Z,9.65
2019-03-10T15:50:54.213Z,9.62
2019-03-10T15:51:54.880Z,9.73
2019-03-10T15:52:54.215Z,9.74
2019-03-10T15:53:54.200Z,9.68
2019-03-10T15:54:57.436Z,9.62
2019-03-10T15:55:54.170Z,9.49
2019-03-10T15:56:54.151Z,9.10
2019-03-10T15:57:54.159Z,8.83
2019-03-10T15:58:54.139Z,9.12
2019-03-10T16:00:31.460Z,9.27
2019-03-10T16:00:54.107Z,9.41
2019-03-10T16:02:01.259Z,9.56
2019-03-10T16:02:54.102Z,9.52
2019-03-10T16:03:54.907Z,9.45
2019-03-10T16:06:03.538Z,9.50
2019-03-10T16:07:02.854Z,9.52
2019-03-10T16:08:02.810Z,9.50
2019-03-10T16:09:02.800Z,9.41
2019-03-10T16:10:02.758Z,9.19
2019-03-10T16:11:03.551Z,8.83
2019-03-10T16:12:02.769Z,8.88
2019-03-10T16:13:02.729Z,8.65
2019-03-10T16:14:02.730Z,8.37
2019-03-10T16:15:05.516Z,8.25
2019-03-10T16:16:02.710Z,8.03
2019-03-10T16:17:04.545Z,7.74
2019-03-10T16:18:03.026Z,7.74
2019-03-10T16:19:02.665Z,7.74
2019-03-10T16:20:25.808Z,7.55
2019-03-10T16:21:02.634Z,7.37
2019-03-10T16:22:02.627Z,7.52
2019-03-10T16:23:02.635Z,7.37
2019-03-10T16:25:11.456Z,7.32
2019-03-10T16:26:11.564Z,7.14
2019-03-10T16:27:11.334Z,7.09
2019-03-10T16:28:18.386Z,6.89
2019-03-10T16:30:20.183Z,6.91
2019-03-10T16:31:20.275Z,6.94
2019-03-10T16:32:20.013Z,7.00
2019-03-10T16:33:20.186Z,7.19
2019-03-10T16:34:21.763Z,7.21
2019-03-10T16:35:22.173Z,7.37
2019-03-10T16:36:20.046Z,7.37
2019-03-10T16:37:20.010Z,7.50
2019-03-10T16:39:27.098Z,7.74
2019-03-10T16:40:19.971Z,7.69
2019-03-10T16:41:19.963Z,7.42
2019-03-10T16:42:19.931Z,7.26
2019-03-10T16:43:19.952Z,7.09
2019-03-10T16:44:19.916Z,7.18
2019-03-10T16:45:19.919Z,7.66
2019-03-10T16:46:19.860Z,7.76
2019-03-10T16:47:19.909Z,8.42
2019-03-10T16:48:19.929Z,8.71
2019-03-10T16:49:19.852Z,8.22
2019-03-10T16:50:19.827Z,8.17
2019-03-10T16:51:19.812Z,7.99
2019-03-10T16:52:19.794Z,8.00
2019-03-10T16:53:19.784Z,8.17
2019-03-10T16:54:19.842Z,8.24
2019-03-10T16:55:19.779Z,8.37
2019-03-10T16:56:19.759Z,8.24
2019-03-10T16:57:19.757Z,7.70
2019-03-10T16:58:19.858Z,7.47
2019-03-10T16:59:19.790Z,7.47
2019-03-10T17:00:19.860Z,7.63
2019-03-10T17:01:19.705Z,8.25
2019-03-10T17:02:19.680Z,8.75
2019-03-10T17:03:19.672Z,8.67
2019-03-10T17:04:19.686Z,8.57
2019-03-10T17:05:19.642Z,8.65
2019-03-10T17:06:19.676Z,8.50
2019-03-10T17:07:19.624Z,8.24
2019-03-10T17:08:19.620Z,7.77
2019-03-10T17:09:19.596Z,7.66
2019-03-10T17:10:19.592Z,7.79
2019-03-10T17:11:19.604Z,7.88
2019-03-10T17:12:19.603Z,7.62
2019-03-10T17:13:19.559Z,7.69
2019-03-10T17:14:19.555Z,7.95
2019-03-10T17:15:19.531Z,7.71
2019-03-10T17:16:19.520Z,7.58
2019-03-10T17:17:19.523Z,7.39
2019-03-10T17:18:19.537Z,7.15
2019-03-10T17:19:19.493Z,7.15
2019-03-10T17:20:19.488Z,6.97
2019-03-10T17:21:19.465Z,7.54
2019-03-10T17:22:19.458Z,7.50
2019-03-10T17:23:19.455Z,7.67
2019-03-10T17:24:19.469Z,7.81
2019-03-10T17:25:19.423Z,7.79
2019-03-10T17:26:19.417Z,7.82
2019-03-10T17:27:19.401Z,7.86
2019-03-10T17:28:19.389Z,7.92
2019-03-10T17:29:19.381Z,7.85
2019-03-10T17:30:19.422Z,7.74
2019-03-10T17:31:19.359Z,7.42
2019-03-10T17:32:19.353Z,7.58
2019-03-10T17:33:19.340Z,7.71
2019-03-10T17:34:19.325Z,7.82
2019-03-10T17:35:19.320Z,7.76
2019-03-10T17:36:19.350Z,7.69
2019-03-10T17:37:19.301Z,7.67
2019-03-10T17:38:19.289Z,7.52
2019-03-10T17:39:19.282Z,7.54
2019-03-10T17:40:19.269Z,7.01
2019-03-10T17:41:19.258Z,7.14
2019-03-10T17:42:19.277Z,7.45
2019-03-10T17:43:19.260Z,7.69
2019-03-10T17:44:19.232Z,7.42
2019-03-10T17:45:19.227Z,7.15
2019-03-10T17:46:19.197Z,7.14
2019-03-10T17:47:19.185Z,7.45
2019-03-10T17:48:19.208Z,7.58
2019-03-10T17:49:19.180Z,7.70
2019-03-10T17:50:19.152Z,7.57
2019-03-10T17:51:19.140Z,7.23
2019-03-10T17:52:19.134Z,6.82
2019-03-10T17:53:19.160Z,6.58
2019-03-10T17:54:19.101Z,6.57
2019-03-10T17:55:19.110Z,6.65
2019-03-10T17:56:19.273Z,7.15
2019-03-10T17:57:19.078Z,7.19
2019-03-10T17:58:19.064Z,7.32
2019-03-10T17:59:19.094Z,7.24
2019-03-10T18:00:19.041Z,7.19
2019-03-10T18:01:19.056Z,7.39
2019-03-10T18:02:19.026Z,7.33
2019-03-10T18:03:19.058Z,7.36
2019-03-10T18:04:19.005Z,7.24
2019-03-10T18:05:19.039Z,7.19
2019-03-10T18:06:19.023Z,6.87
2019-03-10T18:07:18.988Z,6.73
2019-03-10T18:08:18.957Z,6.68
2019-03-10T18:09:18.989Z,6.45
2019-03-10T18:10:18.935Z,6.69
2019-03-10T18:11:18.922Z,6.90
2019-03-10T18:12:18.912Z,6.97
2019-03-10T18:13:18.923Z,6.94
2019-03-10T18:14:18.892Z,6.69
2019-03-10T18:15:18.926Z,6.51
2019-03-10T18:16:18.874Z,6.30
2019-03-10T18:17:18.862Z,6.16
2019-03-10T18:18:18.851Z,6.91
2019-03-10T18:19:18.853Z,7.14
2019-03-10T18:20:18.836Z,7.00
2019-03-10T18:21:18.883Z,6.72
2019-03-10T18:22:18.804Z,6.54
2019-03-10T18:23:18.799Z,6.21
2019-03-10T18:24:18.779Z,6.13
2019-03-10T18:25:18.779Z,5.78
2019-03-10T18:26:18.801Z,5.73
2019-03-10T18:27:18.757Z,6.10
2019-03-10T18:28:18.741Z,6.11
2019-03-10T18:29:18.731Z,5.78
2019-03-10T18:30:18.718Z,5.56
2019-03-10T18:31:18.724Z,5.44
2019-03-10T18:32:18.750Z,5.60
2019-03-10T18:33:18.680Z,5.44
2019-03-10T18:34:18.679Z,5.19
2019-03-10T18:35:18.664Z,5.44
2019-03-10T18:36:18.656Z,5.56
2019-03-10T18:37:18.659Z,5.67
2019-03-10T18:38:18.674Z,6.40
2019-03-10T18:39:20.353Z,6.54
2019-03-10T18:40:18.615Z,6.73
2019-03-10T18:41:18.601Z,6.81
2019-03-10T18:42:18.674Z,6.90
2019-03-10T18:43:18.629Z,7.08
2019-03-10T18:44:18.568Z,6.90
2019-03-10T18:45:20.641Z,6.72
2019-03-10T18:46:18.551Z,6.81
2019-03-10T18:47:18.589Z,6.78
2019-03-10T18:48:18.525Z,6.75
2019-03-10T18:49:18.521Z,6.65
2019-03-10T18:50:18.621Z,6.68
2019-03-10T18:51:18.489Z,6.75
2019-03-10T18:52:18.487Z,6.83
2019-03-10T18:53:18.511Z,6.78
2019-03-10T18:54:18.460Z,6.72
2019-03-10T18:56:27.379Z,6.82
2019-03-10T18:57:27.205Z,6.75
2019-03-10T18:58:27.209Z,6.71
2019-03-10T18:59:27.321Z,6.68
2019-03-10T19:00:27.156Z,6.69
2019-03-10T19:01:27.153Z,6.38
2019-03-10T19:02:27.141Z,5.98
2019-03-10T19:03:27.160Z,5.77
2019-03-10T19:04:28.203Z,5.69
2019-03-10T19:05:27.116Z,6.03
2019-03-10T19:06:27.081Z,6.08
2019-03-10T19:07:27.106Z,6.10
2019-03-10T19:08:27.087Z,5.90
2019-03-10T19:09:28.341Z,5.77
2019-03-10T19:10:27.081Z,5.52
2019-03-10T19:11:27.018Z,5.60
2019-03-10T19:12:27.029Z,5.75
2019-03-10T19:13:26.994Z,5.63
2019-03-10T19:14:27.185Z,5.44
2019-03-10T19:15:26.994Z,5.37
2019-03-10T19:16:27.004Z,5.29
2019-03-10T19:17:26.991Z,5.17
2019-03-10T19:18:26.945Z,4.91
2019-03-10T19:20:35.850Z,4.84
2019-03-10T19:21:35.738Z,4.87
2019-03-10T19:22:35.752Z,4.67
2019-03-10T19:23:35.717Z,4.50
2019-03-10T19:24:35.944Z,4.59
2019-03-10T19:25:35.675Z,4.47
2019-03-10T19:26:35.801Z,4.32
2019-03-10T19:27:35.636Z,4.28
2019-03-10T19:28:35.608Z,4.67
2019-03-10T19:29:37.749Z,5.14
2019-03-10T19:30:35.581Z,5.27
2019-03-10T19:31:35.576Z,5.26
2019-03-10T19:32:35.632Z,5.47
2019-03-10T19:33:36.739Z,5.58
2019-03-10T19:34:35.542Z,5.85
2019-03-10T19:35:35.527Z,5.77
2019-03-10T19:36:35.517Z,5.70
2019-03-10T19:37:35.522Z,5.49
2019-03-10T19:38:36.610Z,5.67
2019-03-10T19:39:35.490Z,5.70
2019-03-10T19:40:35.481Z,5.67
2019-03-10T19:41:35.472Z,5.62
2019-03-10T19:42:35.457Z,5.41
2019-03-10T19:43:56.527Z,5.14
2019-03-10T19:44:35.436Z,4.90
2019-03-10T19:45:35.423Z,4.84
2019-03-10T19:46:35.418Z,4.75
2019-03-10T19:47:35.403Z,4.79
2019-03-10T19:48:35.446Z,4.75
2019-03-10T19:49:35.404Z,4.62
2019-03-10T19:50:35.373Z,4.49
2019-03-10T19:51:35.363Z,4.44
2019-03-10T19:52:35.359Z,4.29
2019-03-10T19:53:49.439Z,4.13
2019-03-10T19:54:35.352Z,4.17
2019-03-10T19:55:35.330Z,4.56
2019-03-10T19:56:35.323Z,4.77
2019-03-10T19:57:35.299Z,5.08
2019-03-10T19:58:35.462Z,4.94
2019-03-10T19:59:35.315Z,4.83
2019-03-10T20:00:35.280Z,5.12
2019-03-10T20:01:35.250Z,4.90
2019-03-10T20:02:35.244Z,4.83
2019-03-10T20:03:35.265Z,5.11
2019-03-10T20:04:35.221Z,5.66
2019-03-10T20:05:35.208Z,6.13
2019-03-10T20:06:35.224Z,6.13
2019-03-10T20:07:35.189Z,5.58
2019-03-10T20:08:35.375Z,5.47
2019-03-10T20:09:35.162Z,5.60
2019-03-10T20:10:35.160Z,5.51
2019-03-10T20:11:35.150Z,5.42
2019-03-10T20:12:35.148Z,5.30
2019-03-10T20:13:35.164Z,5.23
2019-03-10T20:14:35.109Z,5.32
2019-03-10T20:15:35.106Z,5.66
2019-03-10T20:16:35.126Z,5.49
2019-03-10T20:17:35.081Z,5.33
2019-03-10T20:18:35.079Z,5.12
2019-03-10T20:19:35.056Z,4.86
2019-03-10T20:20:35.050Z,4.71
2019-03-10T20:21:35.073Z,4.54
2019-03-10T20:22:35.030Z,4.36
2019-03-10T20:23:35.009Z,4.24
2019-03-10T20:24:35.023Z,4.34
2019-03-10T20:25:34.994Z,4.31
2019-03-10T20:26:34.985Z,4.17
2019-03-10T20:27:36.116Z,4.17
2019-03-10T20:28:34.960Z,4.13
2019-03-10T20:29:34.944Z,4.16
2019-03-10T20:30:34.950Z,4.08
2019-03-10T20:31:34.930Z,4.06
2019-03-10T20:32:42.053Z,4.13
2019-03-10T20:33:34.954Z,4.11
2019-03-10T20:34:34.902Z,3.99
2019-03-10T20:35:34.884Z,4.04
2019-03-10T20:36:34.892Z,4.00
2019-03-10T20:37:34.881Z,4.11
2019-03-10T20:38:34.854Z,4.07
2019-03-10T20:39:36.257Z,4.07
2019-03-10T20:40:34.832Z,4.08
2019-03-10T20:41:34.829Z,3.99
2019-03-10T20:42:34.821Z,4.20
2019-03-10T20:43:34.802Z,4.10
2019-03-10T20:44:34.852Z,4.13
2019-03-10T20:45:34.810Z,4.06
2019-03-10T20:46:34.768Z,3.92
2019-03-10T20:47:34.758Z,3.74
2019-03-10T20:48:34.741Z,3.74
2019-03-10T20:49:34.734Z,3.81
2019-03-10T20:50:34.740Z,3.81
2019-03-10T20:51:34.749Z,3.86
2019-03-10T20:52:34.705Z,3.84
2019-03-10T20:53:34.697Z,3.80
2019-03-10T20:54:34.686Z,3.57
2019-03-10T20:55:34.669Z,3.46
2019-03-10T20:56:34.682Z,3.52
2019-03-10T20:57:34.683Z,3.45
2019-03-10T20:58:35.079Z,3.46
2019-03-10T20:59:34.633Z,3.44
2019-03-10T21:00:34.620Z,3.34
2019-03-10T21:01:34.665Z,3.53
2019-03-10T21:02:34.603Z,3.46
2019-03-10T21:03:41.734Z,3.31
2019-03-10T21:04:34.599Z,3.39
2019-03-10T21:05:49.450Z,3.30
2019-03-10T21:06:34.558Z,3.44
2019-03-10T21:07:34.559Z,3.33
2019-03-10T21:08:35.589Z,3.41
2019-03-10T21:09:41.715Z,3.46
2019-03-10T21:10:49.490Z,3.30
2019-03-10T21:11:34.497Z,3.30
2019-03-10T21:12:40.631Z,3.22
2019-03-10T21:13:34.486Z,3.16
2019-03-10T21:14:35.441Z,3.39
2019-03-10T21:15:58.475Z,3.46
2019-03-10T21:16:34.451Z,3.57
2019-03-10T21:17:35.444Z,3.53
2019-03-10T21:18:36.415Z,3.44
2019-03-10T21:19:34.448Z,3.25
2019-03-10T21:20:40.953Z,3.17
2019-03-10T21:21:34.429Z,3.20
2019-03-10T21:22:34.402Z,3.12
2019-03-10T21:23:34.377Z,3.13
2019-03-10T21:24:34.355Z,3.07
2019-03-10T21:25:52.486Z,2.98
2019-03-10T21:26:34.336Z,2.90
2019-03-10T21:27:34.362Z,2.92
2019-03-10T21:28:34.334Z,3.67
2019-03-10T21:29:42.503Z,3.60
2019-03-10T21:30:49.022Z,3.41
2019-03-10T21:31:35.002Z,3.64
2019-03-10T21:32:34.299Z,3.93
2019-03-10T21:33:41.492Z,3.86
2019-03-10T21:34:34.316Z,3.63
2019-03-10T21:35:49.040Z,3.42
2019-03-10T21:36:34.252Z,3.33
2019-03-10T21:37:34.278Z,3.12
2019-03-10T21:38:34.224Z,3.12
2019-03-10T21:39:35.093Z,3.01
2019-03-10T21:40:34.200Z,2.95
2019-03-10T21:41:34.242Z,3.02
2019-03-10T21:42:34.174Z,3.10
2019-03-10T21:43:34.238Z,3.89
2019-03-10T21:44:58.559Z,3.82
2019-03-10T21:45:34.147Z,3.59
2019-03-10T21:46:34.152Z,3.44
2019-03-10T21:47:34.157Z,3.28
2019-03-10T21:48:34.148Z,3.54
2019-03-10T21:50:43.039Z,3.77
2019-03-10T21:51:42.835Z,3.96
2019-03-10T21:52:42.822Z,3.81
2019-03-10T21:53:42.819Z,3.86
2019-03-10T21:54:57.769Z,3.78
2019-03-10T21:55:42.820Z,3.93
2019-03-10T21:56:42.817Z,3.93
2019-03-10T21:57:42.786Z,3.99
2019-03-10T21:58:42.750Z,3.84
2019-03-10T22:00:51.630Z,3.82
2019-03-10T22:01:51.545Z,3.77
2019-03-10T22:02:51.475Z,3.45
2019-03-10T22:03:51.474Z,3.57
2019-03-10T22:06:00.201Z,3.59
2019-03-10T22:07:00.212Z,3.63
2019-03-10T22:08:00.218Z,3.49
2019-03-10T22:09:15.067Z,3.53
2019-03-10T22:10:00.360Z,3.41
2019-03-10T22:11:00.134Z,3.42
2019-03-10T22:12:00.134Z,3.53
2019-03-10T22:13:00.147Z,3.45
2019-03-10T22:14:06.906Z,3.22
2019-03-10T22:15:00.247Z,3.10
2019-03-10T22:16:00.077Z,3.15
2019-03-10T22:17:00.101Z,3.16
2019-03-10T22:18:00.053Z,3.10
2019-03-10T22:20:08.842Z,3.19
2019-03-10T22:21:08.780Z,3.12
2019-03-10T22:22:08.787Z,3.08
2019-03-10T22:23:08.766Z,3.08
2019-03-10T22:24:10.857Z,3.04
2019-03-10T22:25:12.888Z,3.12
2019-03-10T22:26:08.716Z,3.08
2019-03-10T22:27:08.750Z,3.13
2019-03-10T22:28:08.677Z,3.07
2019-03-10T22:29:10.679Z,3.15
2019-03-10T22:30:08.675Z,3.08
2019-03-10T22:31:08.676Z,2.95
2019-03-10T22:32:08.650Z,3.01
2019-03-10T22:33:40.672Z,3.15
2019-03-10T22:34:08.614Z,2.98
2019-03-10T22:35:08.613Z,2.87
2019-03-10T22:36:08.594Z,2.90
2019-03-10T22:37:08.635Z,2.86
2019-03-10T22:38:36.563Z,2.84
2019-03-10T22:39:08.585Z,2.79
2019-03-10T22:40:08.556Z,2.77
2019-03-10T22:41:08.549Z,2.74
2019-03-10T22:42:08.539Z,2.73
2019-03-10T22:43:36.027Z,2.71
2019-03-10T22:44:08.537Z,2.65
2019-03-10T22:45:08.495Z,2.50
2019-03-10T22:46:08.497Z,2.61
2019-03-10T22:47:08.514Z,2.56
2019-03-10T22:48:25.155Z,2.51
2019-03-10T22:49:08.485Z,2.51
2019-03-10T22:50:08.476Z,2.56
2019-03-10T22:51:08.468Z,2.55
2019-03-10T22:52:08.434Z,2.50
2019-03-10T22:54:08.414Z,2.36
2019-03-10T22:55:08.437Z,2.26
2019-03-10T22:56:08.395Z,2.32
2019-03-10T22:57:08.392Z,2.33
2019-03-10T22:58:46.137Z,2.32
2019-03-10T22:59:08.357Z,2.29
2019-03-10T23:00:08.384Z,2.25
2019-03-10T23:01:08.362Z,2.20
2019-03-10T23:02:08.332Z,2.18
2019-03-10T23:04:08.305Z,2.11
2019-03-10T23:05:08.347Z,2.14
2019-03-10T23:06:08.294Z,2.11
2019-03-10T23:07:08.266Z,2.09
2019-03-10T23:09:17.016Z,1.98
2019-03-10T23:10:17.012Z,1.92
2019-03-10T23:11:16.981Z,1.85
2019-03-10T23:12:38.003Z,1.85
2019-03-10T23:13:16.941Z,1.72
2019-03-10T23:14:16.942Z,1.74
2019-03-10T23:15:16.939Z,1.79
2019-03-10T23:16:16.948Z,1.79
2019-03-10T23:18:25.672Z,1.79
2019-03-10T23:19:25.649Z,1.77
2019-03-10T23:20:25.638Z,1.68
2019-03-10T23:21:25.666Z,1.67
2019-03-10T23:22:25.603Z,1.68
2019-03-10T23:23:25.600Z,1.72
2019-03-10T23:24:25.602Z,1.70
2019-03-10T23:25:25.573Z,1.72
2019-03-10T23:26:25.603Z,1.64
2019-03-10T23:28:34.339Z,1.68
2019-03-10T23:29:34.279Z,1.61
2019-03-10T23:30:34.690Z,1.65
2019-03-10T23:31:37.566Z,1.61
2019-03-10T23:32:34.230Z,1.60
2019-03-10T23:33:34.241Z,1.61
2019-03-10T23:34:34.215Z,1.60
2019-03-10T23:35:34.211Z,1.60
2019-03-10T23:37:03.204Z,1.52
2019-03-10T23:37:34.168Z,1.61
2019-03-10T23:38:34.190Z,1.60
2019-03-10T23:39:34.144Z,1.65
2019-03-10T23:40:34.179Z,1.65
2019-03-10T23:42:42.941Z,1.47
2019-03-10T23:43:42.859Z,1.57
2019-03-10T23:44:42.838Z,1.65
2019-03-10T23:45:42.848Z,1.56
2019-03-10T23:47:53.114Z,1.67
2019-03-10T23:49:00.094Z,1.56
2019-03-10T23:49:53.043Z,1.53
2019-03-10T23:53:17.746Z,1.56
2019-03-10T23:54:17.504Z,1.52
2019-03-10T23:55:17.493Z,1.52
2019-03-10T23:57:26.260Z,1.50
2019-03-10T23:58:26.239Z,1.49
2019-03-10T23:59:26.177Z,1.54
